Time;durP1;ratioP1;P1;durP2;ratioP2;P2;SDS_P1;SDS_P2;PMS_P1;PMS_P2;Temp;Humidity;BMP_temperature;BMP_pressure;BME280_temperature;BME280_humidity;BME280_pressure;Samples;Min_cycle;Max_cycle;Signal;HPM_P1;HPM_P2
2023/06/20 00:02:19;;;;;;;;;;;;;;;15.25;80.15;100459.30;102372;280;96283;-58
2023/06/20 00:04:56;;;;;;;;;;;;;;;15.22;80.13;100457.95;102317;280;97949;-58
2023/06/20 00:07:32;;;;;;;;;;;;;;;15.21;80.15;100457.09;102348;280;120481;-58
2023/06/20 00:10:06;;;;;;;;;;;;;;;15.20;80.26;100461.08;102365;280;104780;-58
2023/06/20 00:12:41;;;;;;;;;;;;;;;15.19;80.32;100462.85;102319;280;115100;-59
2023/06/20 00:15:11;;;;;;;;;;;;;;;15.16;80.39;100460.69;102272;280;96521;-58
2023/06/20 00:17:47;;;;;;;;;;;;;;;15.16;80.33;100462.86;102335;280;95781;-56
2023/06/20 00:20:19;;;;;;;;;;;;;;;15.16;80.44;100462.30;102312;280;120336;-57
2023/06/20 00:22:55;;;;;;;;;;;;;;;15.18;80.52;100462.31;102333;280;105668;-58
2023/06/20 00:25:37;;;;;;;;;;;;;;;15.19;80.46;100462.85;102307;280;114476;-57
2023/06/20 00:28:16;;;;;;;;;;;;;;;15.19;80.63;100462.70;102297;280;96502;-59
2023/06/20 00:30:53;;;;;;;;;;;;;;;15.17;80.57;100462.23;102330;280;97687;-59
2023/06/20 00:33:36;;;;;;;;;;;;;;;15.15;80.77;100463.83;102367;280;119895;-59
2023/06/20 00:36:09;;;;;;;;;;;;;;;15.12;80.72;100470.17;102336;280;106222;-59
2023/06/20 00:38:48;;;;;;;;;;;;;;;15.11;80.78;100470.16;102386;280;114444;-56
2023/06/20 00:41:25;;;;;;;;;;;;;;;15.12;80.90;100472.05;102367;280;97117;-57
2023/06/20 00:44:04;;;;;;;;;;;;;;;15.10;80.94;100473.52;102388;280;98158;-58
2023/06/20 00:46:44;;;;;;;;;;;;;;;15.10;81.02;100474.28;102401;280;121189;-58
2023/06/20 00:49:18;;;;;;;;;;;;;;;15.10;80.92;100471.89;102424;280;103663;-59
2023/06/20 00:51:57;;;;;;;;;;;;;;;15.08;81.12;100474.75;102495;280;113557;-59
2023/06/20 00:54:37;;;;;;;;;;;;;;;15.03;81.42;100473.89;102331;280;93652;-56
2023/06/20 00:57:14;;;;;;;;;;;;;;;14.98;81.47;100475.48;102337;280;96111;-58
2023/06/20 00:59:50;;;;;;;;;;;;;;;14.96;81.46;100477.03;102331;280;119916;-57
2023/06/20 01:02:21;;;;;;;;;;;;;;;14.93;81.54;100476.56;102358;280;105628;-57
2023/06/20 01:04:55;;;;;;;;;;;;;;;14.87;81.47;100475.55;102329;280;114270;-59
2023/06/20 01:07:38;;;;;;;;;;;;;;;14.84;81.41;100481.46;102301;280;96803;-59
2023/06/20 01:10:20;;;;;;;;;;;;;;;14.82;81.62;100483.73;102336;280;96927;-56
2023/06/20 01:12:59;;;;;;;;;;;;;;;14.76;81.64;100482.88;102300;280;120592;-55
2023/06/20 01:15:46;;;;;;;;;;;;;;;14.72;81.87;100477.83;102372;280;105370;-55
2023/06/20 01:18:25;;;;;;;;;;;;;;;14.71;81.95;100474.65;102294;281;114751;-58
2023/06/20 01:21:07;;;;;;;;;;;;;;;14.69;82.15;100472.52;102326;280;96911;-58
2023/06/20 01:23:45;;;;;;;;;;;;;;;14.67;82.22;100470.39;102423;280;96532;-56
2023/06/20 01:26:21;;;;;;;;;;;;;;;14.65;82.29;100466.84;102433;280;119824;-56
2023/06/20 01:28:58;;;;;;;;;;;;;;;14.66;82.26;100470.36;102452;280;104300;-59
2023/06/20 01:31:31;;;;;;;;;;;;;;;14.64;82.47;100472.57;102385;280;114666;-58
2023/06/20 01:34:07;;;;;;;;;;;;;;;14.64;82.64;100472.40;102406;280;96004;-57
2023/06/20 01:36:42;;;;;;;;;;;;;;;14.63;82.64;100473.52;102341;281;97381;-57
2023/06/20 01:39:22;;;;;;;;;;;;;;;14.63;82.85;100474.77;102344;280;120679;-57
2023/06/20 01:42:01;;;;;;;;;;;;;;;14.63;82.78;100474.98;102351;280;105957;-57
2023/06/20 01:44:38;;;;;;;;;;;;;;;14.59;82.90;100480.21;102348;280;115172;-56
2023/06/20 01:47:22;;;;;;;;;;;;;;;14.59;82.95;100483.21;102342;280;96110;-56
2023/06/20 01:50:01;;;;;;;;;;;;;;;14.58;83.10;100485.98;102398;281;97208;-56
2023/06/20 01:52:38;;;;;;;;;;;;;;;14.56;83.17;100484.48;102308;280;121550;-56
2023/06/20 01:55:10;;;;;;;;;;;;;;;14.55;83.20;100482.81;102402;273;106045;-59
2023/06/20 01:57:45;;;;;;;;;;;;;;;14.53;83.01;100478.26;102398;280;115569;-57
2023/06/20 02:00:17;;;;;;;;;;;;;;;14.49;83.15;100481.98;102402;280;96982;-58
2023/06/20 02:02:50;;;;;;;;;;;;;;;14.45;83.22;100488.52;102416;280;97468;-56
2023/06/20 02:05:25;;;;;;;;;;;;;;;14.44;83.38;100485.31;102413;280;120884;-55
2023/06/20 02:08:01;;;;;;;;;;;;;;;14.42;83.37;100484.64;102412;280;106412;-59
2023/06/20 02:10:38;;;;;;;;;;;;;;;14.42;83.60;100483.27;102389;280;113787;-59
2023/06/20 02:13:21;;;;;;;;;;;;;;;14.42;83.63;100479.36;102375;280;97167;-59
2023/06/20 02:15:59;;;;;;;;;;;;;;;14.42;83.65;100478.52;102357;280;97583;-59
2023/06/20 02:18:38;;;;;;;;;;;;;;;14.42;83.80;100482.18;102400;280;120919;-60
2023/06/20 02:21:14;;;;;;;;;;;;;;;14.45;83.76;100485.85;102405;280;105687;-59
2023/06/20 02:23:50;;;;;;;;;;;;;;;14.46;83.69;100484.29;102364;280;114811;-56
2023/06/20 02:26:29;;;;;;;;;;;;;;;14.48;83.87;100485.58;102317;280;96492;-56
2023/06/20 02:29:03;;;;;;;;;;;;;;;14.50;83.99;100486.45;102384;280;97515;-56
2023/06/20 02:31:35;;;;;;;;;;;;;;;14.48;83.80;100483.09;102361;280;120275;-56
2023/06/20 02:34:14;;;;;;;;;;;;;;;14.42;83.95;100481.75;102389;280;104734;-58
2023/06/20 02:36:50;;;;;;;;;;;;;;;14.39;83.95;100485.36;102329;280;114626;-58
2023/06/20 02:39:28;;;;;;;;;;;;;;;14.41;84.06;100487.82;102399;280;96546;-58
2023/06/20 02:42:06;;;;;;;;;;;;;;;14.44;84.07;100488.95;102426;269;97811;-59
2023/06/20 02:44:43;;;;;;;;;;;;;;;14.47;84.13;100489.08;102434;280;121271;-58
2023/06/20 02:47:22;;;;;;;;;;;;;;;14.50;84.08;100489.80;102449;280;106064;-57
2023/06/20 02:49:59;;;;;;;;;;;;;;;14.55;84.23;100490.96;102437;280;114745;-56
2023/06/20 02:52:39;;;;;;;;;;;;;;;14.61;84.24;100492.66;102450;280;97320;-56
2023/06/20 02:55:19;;;;;;;;;;;;;;;14.64;84.14;100494.95;102397;280;96688;-57
2023/06/20 02:57:56;;;;;;;;;;;;;;;14.68;84.17;100496.58;102463;280;119209;-58
2023/06/20 03:00:33;;;;;;;;;;;;;;;14.73;84.23;100498.63;102375;280;105596;-59
2023/06/20 03:03:10;;;;;;;;;;;;;;;14.75;84.28;100501.53;102440;280;113862;-56
2023/06/20 03:05:45;;;;;;;;;;;;;;;14.81;84.35;100494.78;102361;280;95959;-56
2023/06/20 03:08:21;;;;;;;;;;;;;;;14.87;84.44;100495.98;102414;280;96896;-56
2023/06/20 03:10:59;;;;;;;;;;;;;;;14.94;84.42;100491.23;102330;280;121563;-56
2023/06/20 03:13:32;;;;;;;;;;;;;;;15.03;84.48;100492.36;102384;280;106113;-56
2023/06/20 03:16:08;;;;;;;;;;;;;;;15.08;84.39;100491.13;102332;280;114287;-56
2023/06/20 03:18:41;;;;;;;;;;;;;;;15.17;84.47;100490.87;101995;280;421700;-56
2023/06/20 03:21:13;;;;;;;;;;;;;;;15.25;84.57;100487.88;102287;280;96605;-56
2023/06/20 03:23:53;;;;;;;;;;;;;;;15.31;84.60;100486.98;102371;280;121235;-57
2023/06/20 03:26:30;;;;;;;;;;;;;;;15.39;84.71;100487.61;102373;280;106154;-56
2023/06/20 03:29:08;;;;;;;;;;;;;;;15.44;84.57;100490.48;102361;280;116066;-56
2023/06/20 03:31:45;;;;;;;;;;;;;;;15.51;84.67;100490.58;102330;269;97220;-55
2023/06/20 03:34:20;;;;;;;;;;;;;;;15.56;84.71;100491.77;102395;280;97230;-56
2023/06/20 03:36:51;;;;;;;;;;;;;;;15.81;84.60;100488.02;102336;280;120483;-57
2023/06/20 03:39:31;;;;;;;;;;;;;;;16.90;84.44;100483.97;102358;280;104625;-55
2023/06/20 03:42:07;;;;;;;;;;;;;;;18.27;83.03;100484.84;102352;280;114783;-55
2023/06/20 03:44:41;;;;;;;;;;;;;;;19.46;81.68;100485.04;102390;280;93888;-56
2023/06/20 03:47:18;;;;;;;;;;;;;;;20.40;80.17;100491.25;102420;280;98484;-57
2023/06/20 03:49:53;;;;;;;;;;;;;;;21.22;78.85;100495.48;102362;280;121754;-58
2023/06/20 03:52:29;;;;;;;;;;;;;;;21.97;77.26;100498.48;102371;269;104999;-58
2023/06/20 03:55:01;;;;;;;;;;;;;;;22.58;75.63;100495.91;102375;280;114607;-59
2023/06/20 03:57:36;;;;;;;;;;;;;;;22.79;74.18;100498.15;102312;280;94388;-59
2023/06/20 04:00:11;;;;;;;;;;;;;;;23.27;73.06;100495.02;102341;280;96727;-56
2023/06/20 04:02:49;;;;;;;;;;;;;;;23.90;71.60;100499.48;102288;280;119277;-57
2023/06/20 04:05:27;;;;;;;;;;;;;;;24.49;69.98;100501.11;102349;280;105331;-57
2023/06/20 04:08:08;;;;;;;;;;;;;;;24.98;68.68;100499.42;102340;280;114440;-59
2023/06/20 04:10:40;;;;;;;;;;;;;;;25.53;67.27;100501.29;102346;280;94863;-59
2023/06/20 04:13:17;;;;;;;;;;;;;;;25.90;66.23;100499.58;102353;280;97786;-59
2023/06/20 04:15:49;;;;;;;;;;;;;;;26.39;65.00;100501.53;102376;280;121016;-60
2023/06/20 04:18:23;;;;;;;;;;;;;;;26.85;63.80;100503.73;102376;281;105662;-58
2023/06/20 04:20:58;;;;;;;;;;;;;;;26.55;62.71;100502.91;102379;280;113753;-58
2023/06/20 04:23:28;;;;;;;;;;;;;;;26.94;62.03;100500.08;102339;280;95196;-58
2023/06/20 04:26:09;;;;;;;;;;;;;;;27.30;60.91;100501.04;102384;280;96592;-58
2023/06/20 04:28:43;;;;;;;;;;;;;;;27.05;60.07;100504.66;102372;280;121372;-60
2023/06/20 04:31:21;;;;;;;;;;;;;;;26.79;59.95;100512.94;102372;280;106192;-60
2023/06/20 04:33:59;;;;;;;;;;;;;;;26.87;59.60;100507.92;102409;280;113800;-59
2023/06/20 04:36:38;;;;;;;;;;;;;;;26.20;59.22;100507.38;102398;280;95073;-59
2023/06/20 04:39:09;;;;;;;;;;;;;;;25.34;59.63;100503.54;102394;280;97547;-59
2023/06/20 04:41:44;;;;;;;;;;;;;;;24.74;60.32;100509.14;102348;276;120498;-59
2023/06/20 04:44:24;;;;;;;;;;;;;;;24.53;60.71;100511.27;102383;280;105436;-59
2023/06/20 04:47:00;;;;;;;;;;;;;;;25.12;60.78;100513.02;102353;280;114707;-59
2023/06/20 04:49:34;;;;;;;;;;;;;;;26.49;60.50;100507.16;102366;280;95744;-58
2023/06/20 04:52:07;;;;;;;;;;;;;;;28.15;59.72;100502.80;102300;280;96787;-58
2023/06/20 04:54:42;;;;;;;;;;;;;;;29.63;57.73;100506.34;102350;280;119771;-56
2023/06/20 04:57:18;;;;;;;;;;;;;;;29.61;56.05;100505.17;102321;280;105862;-55
2023/06/20 04:59:58;;;;;;;;;;;;;;;28.56;55.79;100502.17;102337;280;114438;-58
2023/06/20 05:02:41;;;;;;;;;;;;;;;27.78;56.15;100505.65;102306;269;94777;-59
2023/06/20 05:05:15;;;;;;;;;;;;;;;27.45;56.78;100513.23;102369;280;95765;-56
2023/06/20 05:07:52;;;;;;;;;;;;;;;27.57;56.82;100509.73;102391;280;121470;-57
2023/06/20 05:10:34;;;;;;;;;;;;;;;26.90;56.91;100514.87;102387;280;105930;-57
2023/06/20 05:13:07;;;;;;;;;;;;;;;26.21;57.46;100516.79;102398;280;114076;-63
2023/06/20 05:15:43;;;;;;;;;;;;;;;25.60;58.16;100511.60;102401;280;93677;-63
2023/06/20 05:18:18;;;;;;;;;;;;;;;25.12;58.79;100514.91;102461;280;96725;-62
2023/06/20 05:20:50;;;;;;;;;;;;;;;24.79;59.68;100508.63;102345;280;121116;-62
2023/06/20 05:23:29;;;;;;;;;;;;;;;24.55;60.40;100512.38;102396;280;105758;-62
2023/06/20 05:26:01;;;;;;;;;;;;;;;24.34;61.37;100514.27;102395;280;114276;-62
2023/06/20 05:28:38;;;;;;;;;;;;;;;24.25;61.83;100512.73;102375;280;94930;-62
2023/06/20 05:31:11;;;;;;;;;;;;;;;24.18;62.33;100512.23;102334;280;98130;-61
2023/06/20 05:33:43;;;;;;;;;;;;;;;24.16;62.82;100516.98;102399;280;120451;-63
2023/06/20 05:36:15;;;;;;;;;;;;;;;24.22;62.86;100515.93;102342;280;104898;-62
2023/06/20 05:38:55;;;;;;;;;;;;;;;24.23;62.94;100513.66;102332;280;114537;-61
2023/06/20 05:41:33;;;;;;;;;;;;;;;24.26;63.24;100512.11;102373;280;95158;-61
2023/06/20 05:44:06;;;;;;;;;;;;;;;24.41;63.58;100510.79;102355;280;97771;-63
2023/06/20 05:46:39;;;;;;;;;;;;;;;24.65;63.39;100509.70;102250;282;121079;-63
2023/06/20 05:49:15;;;;;;;;;;;;;;;24.72;62.58;100513.50;102406;280;105129;-61
2023/06/20 05:51:54;;;;;;;;;;;;;;;24.90;61.88;100516.63;102308;280;114242;-62
2023/06/20 05:54:29;;;;;;;;;;;;;;;25.14;61.33;100513.17;102395;280;94796;-61
2023/06/20 05:57:05;;;;;;;;;;;;;;;25.26;60.34;100521.20;102368;280;97177;-61
2023/06/20 05:59:45;;;;;;;;;;;;;;;25.30;59.76;100515.33;102358;280;121311;-63
2023/06/20 06:02:20;;;;;;;;;;;;;;;25.31;59.48;100517.64;102433;280;104415;-62
2023/06/20 06:04:55;;;;;;;;;;;;;;;25.50;59.85;100512.20;102370;280;112509;-62
2023/06/20 06:07:27;;;;;;;;;;;;;;;26.12;60.40;100511.80;102345;280;95250;-62
2023/06/20 06:10:05;;;;;;;;;;;;;;;26.60;59.22;100517.33;102386;280;97112;-62
2023/06/20 06:12:40;;;;;;;;;;;;;;;26.96;58.21;100517.15;102397;280;121638;-62
2023/06/20 06:15:14;;;;;;;;;;;;;;;27.32;57.49;100520.98;102369;280;106216;-61
2023/06/20 06:17:52;;;;;;;;;;;;;;;27.41;56.83;100522.83;102402;280;114012;-62
2023/06/20 06:20:29;;;;;;;;;;;;;;;27.56;55.50;100522.80;102395;280;94700;-63
2023/06/20 06:23:07;;;;;;;;;;;;;;;27.77;54.96;100516.23;102392;280;97597;-62
2023/06/20 06:25:39;;;;;;;;;;;;;;;28.00;53.90;100513.92;102373;280;120834;-62
2023/06/20 06:28:19;;;;;;;;;;;;;;;27.95;53.69;100509.57;102309;281;105470;-61
2023/06/20 06:30:54;;;;;;;;;;;;;;;27.82;53.14;100512.09;102299;269;114442;-62
2023/06/20 06:33:24;;;;;;;;;;;;;;;27.80;52.69;100512.00;102418;280;92553;-62
2023/06/20 06:36:02;;;;;;;;;;;;;;;27.80;52.30;100513.79;102392;280;96886;-62
2023/06/20 06:38:38;;;;;;;;;;;;;;;27.80;52.07;100515.41;102473;280;119887;-61
2023/06/20 06:41:16;;;;;;;;;;;;;;;27.78;51.39;100516.21;102417;280;104264;-60
2023/06/20 06:43:54;;;;;;;;;;;;;;;27.69;51.30;100516.75;102423;280;113489;-62
2023/06/20 06:46:27;;;;;;;;;;;;;;;27.70;51.45;100515.16;102425;280;94593;-62
2023/06/20 06:49:07;;;;;;;;;;;;;;;27.82;51.07;100517.92;102505;280;96739;-63
2023/06/20 06:51:38;;;;;;;;;;;;;;;28.09;51.58;100516.64;102408;280;119757;-62
2023/06/20 06:54:14;;;;;;;;;;;;;;;28.37;51.32;100520.24;102483;280;105849;-62
2023/06/20 06:56:49;;;;;;;;;;;;;;;28.46;51.27;100521.91;102398;280;114125;-62
2023/06/20 06:59:22;;;;;;;;;;;;;;;28.52;50.87;100519.75;102418;280;95257;-63
2023/06/20 07:01:58;;;;;;;;;;;;;;;28.72;50.79;100521.64;102441;280;95669;-62
2023/06/20 07:04:32;;;;;;;;;;;;;;;28.85;50.68;100523.73;102457;280;118690;-62
2023/06/20 07:07:09;;;;;;;;;;;;;;;29.68;50.73;100523.00;102453;280;105685;-62
2023/06/20 07:09:46;;;;;;;;;;;;;;;30.74;49.31;100523.31;102422;280;114613;-63
2023/06/20 07:12:18;;;;;;;;;;;;;;;31.08;48.17;100521.31;102383;280;94913;-63
2023/06/20 07:14:56;;;;;;;;;;;;;;;32.05;46.91;100516.22;102386;280;97963;-61
2023/06/20 07:17:27;;;;;;;;;;;;;;;32.63;45.11;100509.30;102288;280;120621;-62
2023/06/20 07:20:06;;;;;;;;;;;;;;;32.42;44.82;100512.33;102370;280;103308;-61
2023/06/20 07:22:44;;;;;;;;;;;;;;;33.48;44.13;100511.37;102350;269;115007;-63
2023/06/20 07:25:18;;;;;;;;;;;;;;;34.76;42.49;100513.31;102355;280;94678;-61
2023/06/20 07:27:48;;;;;;;;;;;;;;;35.79;40.76;100517.17;102403;280;96692;-61
2023/06/20 07:30:19;;;;;;;;;;;;;;;36.30;39.89;100515.58;102255;280;120437;-61
2023/06/20 07:32:56;;;;;;;;;;;;;;;36.99;37.99;100515.16;102373;280;106310;-62
2023/06/20 07:35:30;;;;;;;;;;;;;;;37.13;36.73;100516.89;102401;280;113609;-63
2023/06/20 07:38:04;;;;;;;;;;;;;;;37.47;36.18;100517.42;102437;280;94145;-62
2023/06/20 07:40:40;;;;;;;;;;;;;;;37.65;35.27;100521.08;102407;280;97591;-62
2023/06/20 07:43:16;;;;;;;;;;;;;;;37.85;34.33;100520.82;102413;280;120750;-62
2023/06/20 07:45:50;;;;;;;;;;;;;;;38.09;33.78;100519.59;102374;280;105377;-61
2023/06/20 07:48:23;;;;;;;;;;;;;;;38.31;33.47;100519.84;102348;280;114318;-62
2023/06/20 07:50:58;;;;;;;;;;;;;;;38.72;33.68;100518.38;102324;280;93813;-62
2023/06/20 07:53:34;;;;;;;;;;;;;;;38.92;31.90;100521.83;102382;280;96693;-60
2023/06/20 07:56:08;;;;;;;;;;;;;;;39.34;31.55;100522.09;102330;280;121333;-61
2023/06/20 07:58:41;;;;;;;;;;;;;;;39.67;29.71;100526.65;102396;280;104899;-62
2023/06/20 08:01:16;;;;;;;;;;;;;;;39.73;29.73;100527.14;102331;280;114786;-64
2023/06/20 08:03:58;;;;;;;;;;;;;;;38.65;28.96;100527.27;102331;280;93417;-63
2023/06/20 08:06:34;;;;;;;;;;;;;;;37.18;29.91;100525.85;102383;280;97046;-62
2023/06/20 08:09:06;;;;;;;;;;;;;;;35.90;30.90;100532.70;102351;280;120641;-61
2023/06/20 08:11:43;;;;;;;;;;;;;;;36.20;31.32;100530.09;102237;280;105243;-62
2023/06/20 08:14:16;;;;;;;;;;;;;;;36.35;31.63;100531.63;102369;280;114703;-62
2023/06/20 08:16:50;;;;;;;;;;;;;;;36.58;30.69;100527.59;102326;280;94918;-61
2023/06/20 08:19:25;;;;;;;;;;;;;;;36.72;31.00;100528.45;102396;280;95447;-62
2023/06/20 08:28:34;;;;;;;;;;;;;;;37.88;29.27;100533.55;102630;278;113622;-61
2023/06/20 08:31:11;;;;;;;;;;;;;;;37.68;29.13;100535.11;102587;278;94957;-60
2023/06/20 08:33:50;;;;;;;;;;;;;;;38.15;29.29;100532.36;102583;278;97886;-62
2023/06/20 08:36:23;;;;;;;;;;;;;;;38.41;28.86;100531.25;102543;278;119901;-62
2023/06/20 08:38:59;;;;;;;;;;;;;;;38.01;28.98;100535.29;102593;278;104872;-62
2023/06/20 08:41:34;;;;;;;;;;;;;;;37.13;29.19;100533.23;102582;278;114372;-63
2023/06/20 08:44:11;;;;;;;;;;;;;;;36.62;29.69;100536.05;102555;278;94458;-63
2023/06/20 08:46:41;;;;;;;;;;;;;;;36.36;30.43;100539.81;102531;278;96891;-62
2023/06/20 08:49:14;;;;;;;;;;;;;;;36.73;30.94;100533.14;102540;278;118536;-63
2023/06/20 08:51:47;;;;;;;;;;;;;;;37.17;30.22;100534.65;102569;278;106611;-61
2023/06/20 08:54:20;;;;;;;;;;;;;;;37.40;29.67;100532.98;102522;278;113817;-60
2023/06/20 08:56:54;;;;;;;;;;;;;;;36.91;29.23;100538.45;102516;278;93353;-57
2023/06/20 08:59:27;;;;;;;;;;;;;;;36.14;29.67;100542.13;102532;278;97320;-57
2023/06/20 09:01:59;;;;;;;;;;;;;;;36.06;29.89;100539.16;102606;278;120723;-57
2023/06/20 09:04:31;;;;;;;;;;;;;;;35.98;29.95;100537.05;102589;278;106356;-56
2023/06/20 09:07:18;;;;;;;;;;;;;;;35.88;29.79;100542.73;102620;278;113026;-59
2023/06/20 09:10:00;;;;;;;;;;;;;;;35.39;30.24;100540.91;102593;278;94741;-58
2023/06/20 09:12:44;;;;;;;;;;;;;;;35.24;30.41;100540.59;102632;278;97332;-56
2023/06/20 09:15:22;;;;;;;;;;;;;;;35.08;30.57;100536.59;102546;278;121172;-60
2023/06/20 09:18:01;;;;;;;;;;;;;;;35.04;30.89;100537.73;102598;278;105876;-57
2023/06/20 09:20:40;;;;;;;;;;;;;;;35.25;30.59;100535.83;102523;278;114182;-55
2023/06/20 09:23:26;;;;;;;;;;;;;;;34.94;30.73;100529.55;102532;278;95050;-58
2023/06/20 09:26:15;;;;;;;;;;;;;;;35.27;30.86;100533.64;102561;278;98496;-57
2023/06/20 09:29:07;;;;;;;;;;;;;;;35.30;30.87;100533.83;102437;278;121849;-56
2023/06/20 09:31:48;;;;;;;;;;;;;;;35.30;30.81;100534.05;102578;278;104018;-57
2023/06/20 09:34:22;;;;;;;;;;;;;;;35.29;30.74;100529.44;102637;278;112398;-59
2023/06/20 09:36:58;;;;;;;;;;;;;;;35.19;30.51;100526.77;102635;278;93672;-59
2023/06/20 09:39:38;;;;;;;;;;;;;;;35.24;30.39;100527.11;102604;278;96900;-59
2023/06/20 09:42:13;;;;;;;;;;;;;;;35.27;30.44;100525.67;102609;278;120352;-57
2023/06/20 09:44:46;;;;;;;;;;;;;;;35.25;30.43;100522.89;102582;278;104816;-56
2023/06/20 09:47:20;;;;;;;;;;;;;;;34.83;30.05;100521.38;102575;278;114358;-58
2023/06/20 09:49:57;;;;;;;;;;;;;;;34.67;30.31;100519.04;102521;278;94549;-58
2023/06/20 09:52:35;;;;;;;;;;;;;;;34.11;30.85;100521.01;102572;278;98072;-58
2023/06/20 09:55:11;;;;;;;;;;;;;;;33.85;30.90;100522.39;102536;278;120670;-57
2023/06/20 09:57:46;;;;;;;;;;;;;;;33.75;30.92;100522.33;102555;278;105173;-57
2023/06/20 10:00:20;;;;;;;;;;;;;;;33.56;31.53;100531.82;102592;278;112675;-57
2023/06/20 10:02:54;;;;;;;;;;;;;;;33.38;31.85;100530.58;102575;278;94280;-56
2023/06/20 10:05:35;;;;;;;;;;;;;;;33.23;32.27;100532.06;102569;278;97774;-60
2023/06/20 10:08:16;;;;;;;;;;;;;;;32.95;32.16;100529.98;102589;278;120436;-57
2023/06/20 10:10:51;;;;;;;;;;;;;;;32.66;32.15;100521.75;102574;278;105615;-57
2023/06/20 10:13:26;;;;;;;;;;;;;;;32.43;32.33;100520.54;102606;278;113407;-58
2023/06/20 10:16:03;;;;;;;;;;;;;;;32.49;32.91;100522.48;102593;278;93249;-57
2023/06/20 10:18:44;;;;;;;;;;;;;;;32.70;32.91;100519.52;102601;278;97491;-56
2023/06/20 10:21:15;;;;;;;;;;;;;;;32.64;32.99;100521.09;102584;278;121855;-56
2023/06/20 10:23:51;;;;;;;;;;;;;;;32.50;32.87;100517.88;102567;278;105667;-57
2023/06/20 10:26:32;;;;;;;;;;;;;;;32.48;32.92;100516.92;102519;278;114697;-58
2023/06/20 10:29:04;;;;;;;;;;;;;;;32.45;32.94;100513.66;102584;278;93522;-59
2023/06/20 10:32:03;;;;;;;;;;;;;;;32.44;33.34;100511.00;102593;278;97329;-59
2023/06/20 10:34:39;;;;;;;;;;;;;;;32.58;33.57;100508.63;102613;278;121739;-58
2023/06/20 10:37:38;;;;;;;;;;;;;;;32.83;33.98;100511.90;102645;278;104888;-58
2023/06/20 10:40:28;;;;;;;;;;;;;;;33.35;34.39;100507.40;102603;278;114211;-59
2023/06/20 10:43:10;;;;;;;;;;;;;;;33.76;33.47;100508.67;102608;278;93409;-55
2023/06/20 10:45:53;;;;;;;;;;;;;;;33.45;33.05;100508.53;102563;278;95951;-56
2023/06/20 10:48:25;;;;;;;;;;;;;;;33.19;32.94;100512.44;102581;278;121103;-56
2023/06/20 10:51:01;;;;;;;;;;;;;;;32.69;32.87;100511.81;102541;278;105551;-57
2023/06/20 10:53:37;;;;;;;;;;;;;;;32.35;33.35;100512.83;102527;278;114343;-57
2023/06/20 10:56:24;;;;;;;;;;;;;;;31.95;34.22;100514.65;102515;278;92544;-58
2023/06/20 10:59:08;;;;;;;;;;;;;;;31.61;34.07;100514.94;102582;278;95862;-56
2023/06/20 11:01:55;;;;;;;;;;;;;;;31.40;34.67;100512.70;102493;278;120193;-55
2023/06/20 11:04:34;;;;;;;;;;;;;;;31.19;35.65;100517.40;102561;278;105710;-57
2023/06/20 11:07:08;;;;;;;;;;;;;;;31.22;35.90;100516.10;102567;266;113786;-57
2023/06/20 11:09:42;;;;;;;;;;;;;;;30.91;35.54;100512.80;102596;278;93955;-57
2023/06/20 11:12:23;;;;;;;;;;;;;;;30.85;35.53;100514.70;102647;278;97685;-57
2023/06/20 11:14:57;;;;;;;;;;;;;;;30.85;36.43;100515.98;102534;280;119993;-56
2023/06/20 11:17:35;;;;;;;;;;;;;;;30.87;36.45;100506.00;102057;278;743493;-60
2023/06/20 11:20:09;;;;;;;;;;;;;;;30.86;36.32;100508.04;102607;278;114499;-59
2023/06/20 11:22:41;;;;;;;;;;;;;;;30.87;36.21;100503.38;102604;278;94192;-57
2023/06/20 11:25:20;;;;;;;;;;;;;;;30.95;35.41;100502.10;102533;278;98750;-58
2023/06/20 11:27:55;;;;;;;;;;;;;;;31.01;35.15;100497.16;102611;278;120186;-59
2023/06/20 11:30:29;;;;;;;;;;;;;;;30.98;35.09;100491.22;102586;278;106299;-59
2023/06/20 11:33:08;;;;;;;;;;;;;;;30.92;35.49;100491.58;102578;278;114707;-58
2023/06/20 11:35:53;;;;;;;;;;;;;;;31.17;36.27;100493.05;102611;278;92330;-58
2023/06/20 11:38:31;;;;;;;;;;;;;;;31.52;36.38;100489.35;102654;266;95814;-57
2023/06/20 11:41:10;;;;;;;;;;;;;;;31.59;35.02;100486.11;102642;278;120152;-58
2023/06/20 11:43:54;;;;;;;;;;;;;;;31.78;34.94;100477.51;102650;278;105479;-58
2023/06/20 11:46:29;;;;;;;;;;;;;;;32.02;34.91;100476.57;102617;278;114204;-56
2023/06/20 11:49:05;;;;;;;;;;;;;;;32.17;34.64;100472.52;102561;278;93086;-57
2023/06/20 11:51:43;;;;;;;;;;;;;;;32.26;34.12;100476.29;102583;278;95176;-57
2023/06/20 11:54:17;;;;;;;;;;;;;;;32.25;33.96;100474.17;102559;278;119493;-57
2023/06/20 11:57:03;;;;;;;;;;;;;;;32.33;33.76;100471.67;102576;278;105378;-58
2023/06/20 11:59:38;;;;;;;;;;;;;;;32.34;33.58;100471.07;102569;278;114272;-55
2023/06/20 12:02:14;;;;;;;;;;;;;;;32.42;33.68;100469.41;102556;278;95318;-56
2023/06/20 12:04:56;;;;;;;;;;;;;;;32.47;33.98;100476.17;102580;278;96052;-56
2023/06/20 12:07:26;;;;;;;;;;;;;;;32.26;34.11;100468.69;102602;278;121158;-55
2023/06/20 12:10:07;;;;;;;;;;;;;;;31.86;34.28;100468.61;102480;279;103911;-57
2023/06/20 12:12:39;;;;;;;;;;;;;;;31.60;34.27;100477.79;102595;278;115098;-56
2023/06/20 12:15:12;;;;;;;;;;;;;;;31.28;34.75;100479.56;102554;278;93207;-56
2023/06/20 12:17:46;;;;;;;;;;;;;;;30.97;35.31;100480.73;102635;278;96071;-57
2023/06/20 12:20:25;;;;;;;;;;;;;;;30.68;35.37;100472.55;102577;278;122124;-56
2023/06/20 12:23:03;;;;;;;;;;;;;;;30.54;35.79;100476.26;102569;278;105223;-58
2023/06/20 12:25:38;;;;;;;;;;;;;;;30.49;35.29;100470.91;102518;278;114229;-56
2023/06/20 12:28:09;;;;;;;;;;;;;;;30.64;34.51;100473.05;102546;278;93441;-58
2023/06/20 12:30:40;;;;;;;;;;;;;;;30.83;34.34;100470.77;102554;278;96804;-57
2023/06/20 12:33:18;;;;;;;;;;;;;;;30.89;34.38;100470.66;102568;278;119900;-57
2023/06/20 12:35:56;;;;;;;;;;;;;;;30.87;34.17;100466.17;102526;267;104733;-58
2023/06/20 12:38:30;;;;;;;;;;;;;;;30.84;34.44;100468.20;102583;278;114321;-60
2023/06/20 12:41:04;;;;;;;;;;;;;;;30.92;34.25;100464.13;102597;278;93269;-59
2023/06/20 12:43:38;;;;;;;;;;;;;;;30.91;34.13;100463.45;102576;278;98286;-55
2023/06/20 12:46:14;;;;;;;;;;;;;;;30.89;34.33;100463.15;102508;278;119316;-56
2023/06/20 12:48:54;;;;;;;;;;;;;;;30.76;34.12;100460.94;102642;278;104301;-55
2023/06/20 12:51:28;;;;;;;;;;;;;;;30.40;34.23;100457.64;102560;278;114305;-56
2023/06/20 12:54:01;;;;;;;;;;;;;;;30.26;34.51;100455.59;102579;278;93705;-56
2023/06/20 12:56:34;;;;;;;;;;;;;;;30.46;34.75;100452.03;102568;278;96742;-55
2023/06/20 12:59:13;;;;;;;;;;;;;;;30.63;34.81;100452.77;102593;278;120947;-64
2023/06/20 13:01:47;;;;;;;;;;;;;;;30.74;34.50;100449.83;102581;278;104713;-57
2023/06/20 13:04:19;;;;;;;;;;;;;;;30.75;34.56;100443.27;102551;278;115232;-56
2023/06/20 13:06:52;;;;;;;;;;;;;;;30.82;34.53;100443.03;102568;278;94554;-57
2023/06/20 13:09:24;;;;;;;;;;;;;;;30.82;34.49;100441.70;102596;278;97351;-56
2023/06/20 13:11:56;;;;;;;;;;;;;;;30.81;34.22;100438.80;102570;278;120699;-57
2023/06/20 13:14:37;;;;;;;;;;;;;;;30.78;34.11;100437.75;102621;278;105345;-58
2023/06/20 13:17:07;;;;;;;;;;;;;;;30.80;34.05;100434.04;102622;278;115326;-59
2023/06/20 13:19:43;;;;;;;;;;;;;;;30.87;33.80;100428.39;102578;278;94601;-60
2023/06/20 13:22:16;;;;;;;;;;;;;;;30.93;33.83;100426.50;102625;278;96625;-59
2023/06/20 13:24:49;;;;;;;;;;;;;;;30.98;34.30;100422.18;102534;278;120495;-59